sensor_id;sensor_type;location;lat;lon;timestamp;pressure;altitude;pressure_sealevel;temperature;humidity
59531;BME280;45349;48.692;8.186;2023-05-22T00:01:39;98282.72;;;13.84;100.00
59531;BME280;45349;48.692;8.186;2023-05-22T00:04:07;98274.78;;;13.77;100.00
59531;BME280;45349;48.692;8.186;2023-05-22T00:06:34;98272.22;;;13.84;100.00
59531;BME280;45349;48.692;8.186;2023-05-22T00:09:01;98277.03;;;13.80;100.00
59531;BME280;45349;48.692;8.186;2023-05-22T00:11:28;98273.56;;;13.80;100.00
59531;BME280;45349;48.692;8.186;2023-05-22T00:13:54;98282.63;;;13.77;100.00
59531;BME280;45349;48.692;8.186;2023-05-22T00:16:22;98279.75;;;13.72;100.00
59531;BME280;45349;48.692;8.186;2023-05-22T00:18:49;98284.72;;;13.67;100.00
59531;BME280;45349;48.692;8.186;2023-05-22T00:21:15;98283.00;;;13.74;100.00
59531;BME280;45349;48.692;8.186;2023-05-22T00:23:42;98283.47;;;13.78;100.00
59531;BME280;45349;48.692;8.186;2023-05-22T00:26:13;98282.72;;;13.69;100.00
59531;BME280;45349;48.692;8.186;2023-05-22T00:28:39;98275.03;;;13.67;100.00
59531;BME280;45349;48.692;8.186;2023-05-22T00:31:07;98275.84;;;13.68;100.00
59531;BME280;45349;48.692;8.186;2023-05-22T00:33:35;98274.13;;;13.75;100.00
59531;BME280;45349;48.692;8.186;2023-05-22T00:36:02;98272.50;;;13.74;100.00
59531;BME280;45349;48.692;8.186;2023-05-22T00:38:30;98264.47;;;13.76;100.00
59531;BME280;45349;48.692;8.186;2023-05-22T00:40:57;98271.88;;;13.72;100.00
59531;BME280;45349;48.692;8.186;2023-05-22T00:43:24;98271.88;;;13.72;100.00
59531;BME280;45349;48.692;8.186;2023-05-22T00:45:51;98276.13;;;13.73;100.00
59531;BME280;45349;48.692;8.186;2023-05-22T00:48:18;98274.50;;;13.72;100.00
59531;BME280;45349;48.692;8.186;2023-05-22T00:50:46;98275.41;;;13.79;100.00
59531;BME280;45349;48.692;8.186;2023-05-22T00:53:14;98271.59;;;13.82;100.00
59531;BME280;45349;48.692;8.186;2023-05-22T00:55:42;98279.66;;;13.80;100.00
59531;BME280;45349;48.692;8.186;2023-05-22T00:58:12;98276.19;;;13.80;100.00
59531;BME280;45349;48.692;8.186;2023-05-22T01:00:40;98278.66;;;13.81;100.00
59531;BME280;45349;48.692;8.186;2023-05-22T01:03:09;98282.09;;;13.82;100.00
59531;BME280;45349;48.692;8.186;2023-05-22T01:05:37;98282.81;;;13.91;100.00
59531;BME280;45349;48.692;8.186;2023-05-22T01:08:08;98287.97;;;13.84;100.00
59531;BME280;45349;48.692;8.186;2023-05-22T01:10:36;98285.47;;;13.76;100.00
59531;BME280;45349;48.692;8.186;2023-05-22T01:13:10;98295.31;;;13.73;100.00
59531;BME280;45349;48.692;8.186;2023-05-22T01:15:43;98295.56;;;13.79;100.00
59531;BME280;45349;48.692;8.186;2023-05-22T01:18:17;98293.50;;;13.74;100.00
59531;BME280;45349;48.692;8.186;2023-05-22T01:20:49;98303.00;;;13.75;100.00
59531;BME280;45349;48.692;8.186;2023-05-22T01:26:36;98301.63;;;13.64;100.00
59531;BME280;45349;48.692;8.186;2023-05-22T01:29:27;98300.16;;;13.62;100.00
59531;BME280;45349;48.692;8.186;2023-05-22T01:31:59;98306.94;;;13.56;100.00
59531;BME280;45349;48.692;8.186;2023-05-22T01:34:32;98306.13;;;13.55;100.00
59531;BME280;45349;48.692;8.186;2023-05-22T01:37:01;98304.13;;;13.57;100.00
59531;BME280;45349;48.692;8.186;2023-05-22T01:39:34;98310.72;;;13.53;100.00
59531;BME280;45349;48.692;8.186;2023-05-22T01:42:02;98308.84;;;13.62;100.00
59531;BME280;45349;48.692;8.186;2023-05-22T01:44:33;98310.84;;;13.60;100.00
59531;BME280;45349;48.692;8.186;2023-05-22T01:47:02;98308.03;;;13.62;100.00
59531;BME280;45349;48.692;8.186;2023-05-22T01:49:35;98314.19;;;13.69;100.00
59531;BME280;45349;48.692;8.186;2023-05-22T01:52:05;98314.84;;;13.71;100.00
59531;BME280;45349;48.692;8.186;2023-05-22T01:54:38;98317.47;;;13.86;100.00
59531;BME280;45349;48.692;8.186;2023-05-22T01:57:12;98320.09;;;13.86;100.00
59531;BME280;45349;48.692;8.186;2023-05-22T01:59:43;98318.47;;;13.85;100.00
59531;BME280;45349;48.692;8.186;2023-05-22T02:02:15;98324.34;;;13.87;100.00
59531;BME280;45349;48.692;8.186;2023-05-22T02:04:45;98325.09;;;13.96;100.00
59531;BME280;45349;48.692;8.186;2023-05-22T02:07:14;98327.25;;;13.92;100.00
59531;BME280;45349;48.692;8.186;2023-05-22T02:09:44;98333.03;;;14.02;100.00
59531;BME280;45349;48.692;8.186;2023-05-22T02:12:12;98330.25;;;14.04;100.00
59531;BME280;45349;48.692;8.186;2023-05-22T02:14:40;98329.63;;;14.02;100.00
59531;BME280;45349;48.692;8.186;2023-05-22T02:17:07;98326.34;;;14.00;100.00
59531;BME280;45349;48.692;8.186;2023-05-22T02:19:35;98328.34;;;13.98;100.00
59531;BME280;45349;48.692;8.186;2023-05-22T02:22:03;98335.84;;;14.01;100.00
59531;BME280;45349;48.692;8.186;2023-05-22T02:24:35;98332.03;;;14.03;100.00
59531;BME280;45349;48.692;8.186;2023-05-22T02:27:02;98331.88;;;14.05;100.00
59531;BME280;45349;48.692;8.186;2023-05-22T02:29:33;98343.44;;;14.11;100.00
59531;BME280;45349;48.692;8.186;2023-05-22T02:32:00;98336.22;;;14.13;100.00
59531;BME280;45349;48.692;8.186;2023-05-22T02:34:33;98325.53;;;14.14;100.00
59531;BME280;45349;48.692;8.186;2023-05-22T02:37:03;98321.94;;;14.15;100.00
59531;BME280;45349;48.692;8.186;2023-05-22T02:39:33;98330.31;;;14.11;100.00
59531;BME280;45349;48.692;8.186;2023-05-22T02:42:00;98331.78;;;14.13;100.00
59531;BME280;45349;48.692;8.186;2023-05-22T02:44:52;98328.34;;;14.13;100.00
59531;BME280;45349;48.692;8.186;2023-05-22T02:47:19;98334.88;;;14.02;100.00
59531;BME280;45349;48.692;8.186;2023-05-22T02:49:46;98334.41;;;13.98;100.00
59531;BME280;45349;48.692;8.186;2023-05-22T02:52:14;98329.59;;;13.87;100.00
59531;BME280;45349;48.692;8.186;2023-05-22T02:54:41;98333.56;;;13.83;100.00
59531;BME280;45349;48.692;8.186;2023-05-22T02:57:08;98330.84;;;13.76;100.00
59531;BME280;45349;48.692;8.186;2023-05-22T02:59:35;98327.94;;;13.71;100.00
59531;BME280;45349;48.692;8.186;2023-05-22T03:04:44;98323.59;;;13.63;100.00
59531;BME280;45349;48.692;8.186;2023-05-22T03:07:11;98321.69;;;13.57;100.00
59531;BME280;45349;48.692;8.186;2023-05-22T03:09:39;98323.84;;;13.53;100.00
59531;BME280;45349;48.692;8.186;2023-05-22T03:12:06;98320.28;;;13.46;100.00
59531;BME280;45349;48.692;8.186;2023-05-22T03:14:34;98319.66;;;13.44;100.00
59531;BME280;45349;48.692;8.186;2023-05-22T03:17:01;98318.69;;;13.37;100.00
59531;BME280;45349;48.692;8.186;2023-05-22T03:19:33;98317.53;;;13.39;100.00
59531;BME280;45349;48.692;8.186;2023-05-22T03:22:00;98317.69;;;13.38;100.00
59531;BME280;45349;48.692;8.186;2023-05-22T03:24:34;98316.06;;;13.37;100.00
59531;BME280;45349;48.692;8.186;2023-05-22T03:27:02;98316.91;;;13.37;100.00
59531;BME280;45349;48.692;8.186;2023-05-22T03:29:38;98320.88;;;13.33;100.00
59531;BME280;45349;48.692;8.186;2023-05-22T03:32:05;98318.75;;;13.28;100.00
59531;BME280;45349;48.692;8.186;2023-05-22T03:34:34;98324.34;;;13.25;100.00
59531;BME280;45349;48.692;8.186;2023-05-22T03:37:02;98322.91;;;13.23;100.00
59531;BME280;45349;48.692;8.186;2023-05-22T03:39:34;98329.34;;;13.20;100.00
59531;BME280;45349;48.692;8.186;2023-05-22T03:42:12;98322.56;;;13.26;100.00
59531;BME280;45349;48.692;8.186;2023-05-22T03:44:39;98319.28;;;13.24;100.00
59531;BME280;45349;48.692;8.186;2023-05-22T03:47:05;98318.84;;;13.20;100.00
59531;BME280;45349;48.692;8.186;2023-05-22T03:49:33;98323.25;;;13.20;100.00
59531;BME280;45349;48.692;8.186;2023-05-22T03:52:00;98323.91;;;13.22;100.00
59531;BME280;45349;48.692;8.186;2023-05-22T03:54:30;98310.78;;;13.22;100.00
59531;BME280;45349;48.692;8.186;2023-05-22T03:56:57;98317.50;;;13.24;100.00
59531;BME280;45349;48.692;8.186;2023-05-22T03:59:25;98312.25;;;13.24;100.00
59531;BME280;45349;48.692;8.186;2023-05-22T04:01:51;98314.34;;;13.29;100.00
59531;BME280;45349;48.692;8.186;2023-05-22T04:04:18;98310.47;;;13.40;100.00
59531;BME280;45349;48.692;8.186;2023-05-22T04:06:44;98320.47;;;13.45;100.00
59531;BME280;45349;48.692;8.186;2023-05-22T04:09:12;98317.59;;;13.54;100.00
59531;BME280;45349;48.692;8.186;2023-05-22T04:11:39;98320.84;;;13.56;100.00
59531;BME280;45349;48.692;8.186;2023-05-22T04:14:06;98316.38;;;13.65;100.00
59531;BME280;45349;48.692;8.186;2023-05-22T04:16:34;98319.28;;;13.70;100.00
59531;BME280;45349;48.692;8.186;2023-05-22T04:19:01;98318.09;;;13.73;100.00
59531;BME280;45349;48.692;8.186;2023-05-22T04:21:27;98320.19;;;13.78;100.00
59531;BME280;45349;48.692;8.186;2023-05-22T04:23:54;98319.28;;;13.85;100.00
59531;BME280;45349;48.692;8.186;2023-05-22T04:26:22;98323.25;;;13.96;100.00
59531;BME280;45349;48.692;8.186;2023-05-22T04:28:48;98322.38;;;14.04;100.00
59531;BME280;45349;48.692;8.186;2023-05-22T04:31:15;98322.47;;;14.11;100.00
59531;BME280;45349;48.692;8.186;2023-05-22T04:33:43;98322.38;;;14.19;100.00
59531;BME280;45349;48.692;8.186;2023-05-22T04:36:12;98325.72;;;14.28;100.00
59531;BME280;45349;48.692;8.186;2023-05-22T04:38:39;98319.19;;;14.39;100.00
59531;BME280;45349;48.692;8.186;2023-05-22T04:41:05;98329.75;;;14.45;100.00
59531;BME280;45349;48.692;8.186;2023-05-22T04:43:34;98329.84;;;14.52;100.00
59531;BME280;45349;48.692;8.186;2023-05-22T04:46:02;98327.28;;;14.59;100.00
59531;BME280;45349;48.692;8.186;2023-05-22T04:48:29;98326.31;;;14.75;100.00
59531;BME280;45349;48.692;8.186;2023-05-22T04:50:57;98336.47;;;14.78;100.00
59531;BME280;45349;48.692;8.186;2023-05-22T04:53:27;98337.78;;;14.89;100.00
59531;BME280;45349;48.692;8.186;2023-05-22T04:55:54;98336.47;;;15.00;100.00
59531;BME280;45349;48.692;8.186;2023-05-22T04:58:21;98335.09;;;15.04;100.00
59531;BME280;45349;48.692;8.186;2023-05-22T05:00:49;98343.06;;;15.11;100.00
59531;BME280;45349;48.692;8.186;2023-05-22T05:03:16;98342.09;;;15.18;100.00
59531;BME280;45349;48.692;8.186;2023-05-22T05:05:43;98347.25;;;15.27;100.00
59531;BME280;45349;48.692;8.186;2023-05-22T05:08:11;98346.00;;;15.44;100.00
59531;BME280;45349;48.692;8.186;2023-05-22T05:10:38;98348.88;;;15.49;100.00
59531;BME280;45349;48.692;8.186;2023-05-22T05:13:07;98356.25;;;15.61;100.00
59531;BME280;45349;48.692;8.186;2023-05-22T05:15:36;98356.91;;;15.70;100.00
59531;BME280;45349;48.692;8.186;2023-05-22T05:18:03;98356.59;;;15.79;100.00
59531;BME280;45349;48.692;8.186;2023-05-22T05:20:30;98349.41;;;15.95;100.00
59531;BME280;45349;48.692;8.186;2023-05-22T05:22:56;98354.59;;;16.10;100.00
59531;BME280;45349;48.692;8.186;2023-05-22T05:25:24;98355.84;;;16.21;100.00
59531;BME280;45349;48.692;8.186;2023-05-22T05:27:51;98356.75;;;16.35;100.00
59531;BME280;45349;48.692;8.186;2023-05-22T05:30:19;98352.34;;;16.49;100.00
59531;BME280;45349;48.692;8.186;2023-05-22T05:33:18;98357.91;;;16.67;100.00
59531;BME280;45349;48.692;8.186;2023-05-22T05:35:57;98357.75;;;16.82;100.00
59531;BME280;45349;48.692;8.186;2023-05-22T05:38:24;98360.03;;;16.92;100.00
59531;BME280;45349;48.692;8.186;2023-05-22T05:40:54;98355.59;;;17.00;100.00
59531;BME280;45349;48.692;8.186;2023-05-22T05:43:20;98355.16;;;16.96;100.00
59531;BME280;45349;48.692;8.186;2023-05-22T05:45:49;98357.56;;;16.91;100.00
59531;BME280;45349;48.692;8.186;2023-05-22T05:48:16;98360.44;;;16.89;100.00
59531;BME280;45349;48.692;8.186;2023-05-22T05:50:47;98362.84;;;16.91;100.00
59531;BME280;45349;48.692;8.186;2023-05-22T05:53:14;98360.44;;;16.89;100.00
59531;BME280;45349;48.692;8.186;2023-05-22T05:55:46;98363.25;;;16.88;100.00
59531;BME280;45349;48.692;8.186;2023-05-22T05:58:14;98374.19;;;16.85;100.00
59531;BME280;45349;48.692;8.186;2023-05-22T06:00:58;98377.03;;;16.83;100.00
59531;BME280;45349;48.692;8.186;2023-05-22T06:03:25;98377.41;;;16.80;100.00
59531;BME280;45349;48.692;8.186;2023-05-22T06:06:05;98374.56;;;16.81;100.00
59531;BME280;45349;48.692;8.186;2023-05-22T06:08:52;98386.34;;;16.86;100.00
59531;BME280;45349;48.692;8.186;2023-05-22T06:11:25;98385.16;;;16.95;100.00
59531;BME280;45349;48.692;8.186;2023-05-22T06:13:54;98390.31;;;17.10;100.00
59531;BME280;45349;48.692;8.186;2023-05-22T06:16:21;98398.25;;;17.23;100.00
59531;BME280;45349;48.692;8.186;2023-05-22T06:18:48;98398.88;;;17.25;100.00
59531;BME280;45349;48.692;8.186;2023-05-22T06:21:16;98404.34;;;17.24;100.00
59531;BME280;45349;48.692;8.186;2023-05-22T06:23:45;98399.66;;;17.19;100.00
59531;BME280;45349;48.692;8.186;2023-05-22T06:26:12;98400.69;;;17.25;100.00
59531;BME280;45349;48.692;8.186;2023-05-22T06:28:41;98402.94;;;17.28;100.00
59531;BME280;45349;48.692;8.186;2023-05-22T06:31:09;98407.81;;;17.38;100.00
59531;BME280;45349;48.692;8.186;2023-05-22T06:33:39;98411.28;;;17.45;100.00
59531;BME280;45349;48.692;8.186;2023-05-22T06:36:07;98409.66;;;17.51;100.00
59531;BME280;45349;48.692;8.186;2023-05-22T06:38:35;98402.56;;;17.71;100.00
59531;BME280;45349;48.692;8.186;2023-05-22T06:41:04;98401.97;;;17.90;100.00
59531;BME280;45349;48.692;8.186;2023-05-22T06:43:32;98408.88;;;18.18;100.00
59531;BME280;45349;48.692;8.186;2023-05-22T06:46:05;98404.75;;;18.49;100.00
59531;BME280;45349;48.692;8.186;2023-05-22T06:48:49;98402.25;;;18.67;97.12
59531;BME280;45349;48.692;8.186;2023-05-22T06:51:22;98412.94;;;18.99;94.37
59531;BME280;45349;48.692;8.186;2023-05-22T06:53:51;98414.38;;;19.34;90.53
59531;BME280;45349;48.692;8.186;2023-05-22T06:56:22;98419.03;;;19.64;91.62
59531;BME280;45349;48.692;8.186;2023-05-22T06:58:55;98410.53;;;19.87;88.64
59531;BME280;45349;48.692;8.186;2023-05-22T07:01:32;98414.34;;;20.17;86.04
59531;BME280;45349;48.692;8.186;2023-05-22T07:04:08;98417.53;;;20.26;84.77
59531;BME280;45349;48.692;8.186;2023-05-22T07:06:46;98417.53;;;20.07;82.60
59531;BME280;45349;48.692;8.186;2023-05-22T07:09:13;98421.47;;;19.98;80.26
59531;BME280;45349;48.692;8.186;2023-05-22T07:11:40;98422.06;;;20.18;79.92
59531;BME280;45349;48.692;8.186;2023-05-22T07:14:08;98428.88;;;20.33;79.65
59531;BME280;45349;48.692;8.186;2023-05-22T07:16:37;98423.28;;;20.60;79.13
59531;BME280;45349;48.692;8.186;2023-05-22T07:19:04;98421.09;;;20.94;76.97
59531;BME280;45349;48.692;8.186;2023-05-22T07:21:34;98413.72;;;20.96;78.03
59531;BME280;45349;48.692;8.186;2023-05-22T07:24:03;98419.03;;;20.77;80.14
59531;BME280;45349;48.692;8.186;2023-05-22T07:26:34;98423.38;;;20.90;77.57
59531;BME280;45349;48.692;8.186;2023-05-22T07:29:05;98423.16;;;20.92;78.71
59531;BME280;45349;48.692;8.186;2023-05-22T07:31:33;98429.09;;;21.06;76.92
59531;BME280;45349;48.692;8.186;2023-05-22T07:34:00;98426.81;;;21.09;77.66
59531;BME280;45349;48.692;8.186;2023-05-22T07:36:29;98428.25;;;20.56;82.59
59531;BME280;45349;48.692;8.186;2023-05-22T07:38:57;98427.34;;;20.44;81.30
59531;BME280;45349;48.692;8.186;2023-05-22T07:41:24;98427.38;;;20.00;84.57
59531;BME280;45349;48.692;8.186;2023-05-22T07:43:51;98423.19;;;20.11;84.58
59531;BME280;45349;48.692;8.186;2023-05-22T07:46:23;98428.72;;;19.77;87.10
59531;BME280;45349;48.692;8.186;2023-05-22T07:48:56;98435.06;;;19.76;85.37
59531;BME280;45349;48.692;8.186;2023-05-22T07:51:23;98436.94;;;19.69;85.07
59531;BME280;45349;48.692;8.186;2023-05-22T07:53:50;98436.44;;;19.79;86.60
59531;BME280;45349;48.692;8.186;2023-05-22T07:56:18;98435.91;;;19.70;86.53
59531;BME280;45349;48.692;8.186;2023-05-22T07:58:47;98443.00;;;20.08;85.79
59531;BME280;45349;48.692;8.186;2023-05-22T08:01:17;98439.63;;;19.94;84.61
59531;BME280;45349;48.692;8.186;2023-05-22T08:03:43;98443.75;;;20.34;84.68
59531;BME280;45349;48.692;8.186;2023-05-22T08:06:11;98443.47;;;20.42;81.62
59531;BME280;45349;48.692;8.186;2023-05-22T08:08:39;98447.34;;;20.84;79.55
59531;BME280;45349;48.692;8.186;2023-05-22T08:11:08;98447.63;;;20.94;76.77
59531;BME280;45349;48.692;8.186;2023-05-22T08:13:36;98447.03;;;20.92;77.34
59531;BME280;45349;48.692;8.186;2023-05-22T08:16:06;98447.47;;;20.70;78.70
59531;BME280;45349;48.692;8.186;2023-05-22T08:18:33;98448.13;;;20.84;80.00
59531;BME280;45349;48.692;8.186;2023-05-22T08:21:00;98448.13;;;20.47;79.80
59531;BME280;45349;48.692;8.186;2023-05-22T08:23:26;98446.03;;;20.68;78.61
59531;BME280;45349;48.692;8.186;2023-05-22T08:25:54;98444.16;;;20.93;78.88
59531;BME280;45349;48.692;8.186;2023-05-22T08:28:20;98444.44;;;21.34;78.41
59531;BME280;45349;48.692;8.186;2023-05-22T08:30:49;98439.78;;;21.60;75.63
59531;BME280;45349;48.692;8.186;2023-05-22T08:33:15;98437.78;;;21.86;77.06
59531;BME280;45349;48.692;8.186;2023-05-22T08:35:43;98443.34;;;21.96;75.10
59531;BME280;45349;48.692;8.186;2023-05-22T08:38:10;98437.47;;;22.18;73.36
59531;BME280;45349;48.692;8.186;2023-05-22T08:40:37;98439.41;;;22.35;73.27
59531;BME280;45349;48.692;8.186;2023-05-22T08:43:04;98440.91;;;22.31;72.11
59531;BME280;45349;48.692;8.186;2023-05-22T08:45:31;98445.88;;;22.39;72.81
59531;BME280;45349;48.692;8.186;2023-05-22T08:48:03;98435.00;;;22.52;71.38
59531;BME280;45349;48.692;8.186;2023-05-22T08:50:31;98431.44;;;22.59;70.22
59531;BME280;45349;48.692;8.186;2023-05-22T08:52:59;98431.81;;;22.91;69.98
59531;BME280;45349;48.692;8.186;2023-05-22T08:55:27;98436.44;;;22.96;71.30
59531;BME280;45349;48.692;8.186;2023-05-22T08:57:55;98435.09;;;23.10;69.59
59531;BME280;45349;48.692;8.186;2023-05-22T09:00:22;98439.00;;;23.20;69.45
59531;BME280;45349;48.692;8.186;2023-05-22T09:02:49;98438.38;;;23.00;71.24
59531;BME280;45349;48.692;8.186;2023-05-22T09:05:17;98432.88;;;23.48;68.50
59531;BME280;45349;48.692;8.186;2023-05-22T09:07:44;98434.47;;;22.91;68.19
59531;BME280;45349;48.692;8.186;2023-05-22T09:10:13;98433.69;;;23.20;67.77
59531;BME280;45349;48.692;8.186;2023-05-22T09:13:01;98431.78;;;22.62;68.97
59531;BME280;45349;48.692;8.186;2023-05-22T09:15:29;98436.84;;;22.64;69.25
59531;BME280;45349;48.692;8.186;2023-05-22T09:17:56;98426.84;;;22.83;69.80
59531;BME280;45349;48.692;8.186;2023-05-22T09:20:24;98430.47;;;22.77;69.89
59531;BME280;45349;48.692;8.186;2023-05-22T09:22:51;98429.59;;;22.88;68.12
59531;BME280;45349;48.692;8.186;2023-05-22T09:25:18;98433.03;;;22.36;71.24
59531;BME280;45349;48.692;8.186;2023-05-22T09:27:45;98433.16;;;22.29;71.32
59531;BME280;45349;48.692;8.186;2023-05-22T09:30:14;98434.75;;;21.82;72.25
59531;BME280;45349;48.692;8.186;2023-05-22T09:32:41;98429.44;;;21.82;72.18
59531;BME280;45349;48.692;8.186;2023-05-22T09:35:08;98425.88;;;21.89;74.29
59531;BME280;45349;48.692;8.186;2023-05-22T09:37:37;98422.09;;;22.20;73.18
59531;BME280;45349;48.692;8.186;2023-05-22T09:40:05;98423.00;;;22.14;73.44
59531;BME280;45349;48.692;8.186;2023-05-22T09:42:33;98422.53;;;22.29;70.90
59531;BME280;45349;48.692;8.186;2023-05-22T09:45:03;98427.19;;;22.46;70.39
59531;BME280;45349;48.692;8.186;2023-05-22T09:47:30;98426.09;;;22.35;71.26
59531;BME280;45349;48.692;8.186;2023-05-22T09:49:57;98421.47;;;22.42;71.52
59531;BME280;45349;48.692;8.186;2023-05-22T09:52:26;98418.25;;;22.52;72.79
59531;BME280;45349;48.692;8.186;2023-05-22T09:54:55;98415.63;;;22.81;72.30
59531;BME280;45349;48.692;8.186;2023-05-22T09:57:24;98422.50;;;22.77;70.73
59531;BME280;45349;48.692;8.186;2023-05-22T09:59:52;98420.88;;;22.76;71.39
59531;BME280;45349;48.692;8.186;2023-05-22T10:02:23;98413.53;;;22.95;72.35
59531;BME280;45349;48.692;8.186;2023-05-22T10:04:51;98418.13;;;22.70;71.07
59531;BME280;45349;48.692;8.186;2023-05-22T10:07:20;98417.69;;;22.91;71.71
59531;BME280;45349;48.692;8.186;2023-05-22T10:09:51;98419.44;;;22.85;70.67
59531;BME280;45349;48.692;8.186;2023-05-22T10:12:22;98416.78;;;22.85;69.72
59531;BME280;45349;48.692;8.186;2023-05-22T10:14:49;98421.34;;;22.73;71.27
59531;BME280;45349;48.692;8.186;2023-05-22T10:17:17;98410.19;;;22.88;69.18
59531;BME280;45349;48.692;8.186;2023-05-22T10:19:45;98409.38;;;22.87;69.68
59531;BME280;45349;48.692;8.186;2023-05-22T10:22:13;98402.94;;;22.71;69.42
59531;BME280;45349;48.692;8.186;2023-05-22T10:24:45;98393.75;;;22.91;69.31
59531;BME280;45349;48.692;8.186;2023-05-22T10:27:13;98398.72;;;23.16;69.34
59531;BME280;45349;48.692;8.186;2023-05-22T10:29:44;98399.19;;;23.25;67.76
59531;BME280;45349;48.692;8.186;2023-05-22T10:32:19;98403.50;;;23.43;67.36
59531;BME280;45349;48.692;8.186;2023-05-22T10:34:59;98396.88;;;23.17;65.34
59531;BME280;45349;48.692;8.186;2023-05-22T10:37:41;98387.25;;;23.44;65.24
59531;BME280;45349;48.692;8.186;2023-05-22T10:40:12;98398.25;;;23.48;62.37
59531;BME280;45349;48.692;8.186;2023-05-22T10:42:39;98394.31;;;23.68;63.62
59531;BME280;45349;48.692;8.186;2023-05-22T10:45:09;98394.03;;;23.86;62.74
59531;BME280;45349;48.692;8.186;2023-05-22T10:47:36;98394.84;;;23.87;62.91
59531;BME280;45349;48.692;8.186;2023-05-22T10:50:06;98391.38;;;23.69;62.80
59531;BME280;45349;48.692;8.186;2023-05-22T10:52:33;98381.63;;;23.75;61.39
59531;BME280;45349;48.692;8.186;2023-05-22T10:54:59;98388.16;;;23.67;60.79
59531;BME280;45349;48.692;8.186;2023-05-22T10:57:31;98382.88;;;23.89;60.11
59531;BME280;45349;48.692;8.186;2023-05-22T11:00:10;98369.09;;;24.10;60.68
59531;BME280;45349;48.692;8.186;2023-05-22T11:02:40;98370.50;;;24.17;60.63
59531;BME280;45349;48.692;8.186;2023-05-22T11:05:34;98369.16;;;24.37;59.23
59531;BME280;45349;48.692;8.186;2023-05-22T11:08:16;98368.47;;;24.47;58.76
59531;BME280;45349;48.692;8.186;2023-05-22T11:11:09;98373.50;;;24.43;58.81
59531;BME280;45349;48.692;8.186;2023-05-22T11:13:37;98371.06;;;24.42;57.57
59531;BME280;45349;48.692;8.186;2023-05-22T11:16:06;98366.63;;;24.47;60.07
59531;BME280;45349;48.692;8.186;2023-05-22T11:18:33;98368.63;;;24.80;60.69
59531;BME280;45349;48.692;8.186;2023-05-22T11:21:00;98373.31;;;24.95;54.45
59531;BME280;45349;48.692;8.186;2023-05-22T11:23:32;98368.47;;;24.91;54.08
59531;BME280;45349;48.692;8.186;2023-05-22T11:26:18;98363.06;;;24.86;53.09
59531;BME280;45349;48.692;8.186;2023-05-22T11:28:50;98361.22;;;24.87;54.27
59531;BME280;45349;48.692;8.186;2023-05-22T11:31:19;98359.56;;;24.81;54.57
59531;BME280;45349;48.692;8.186;2023-05-22T11:33:48;98356.34;;;24.79;55.04
59531;BME280;45349;48.692;8.186;2023-05-22T11:36:15;98364.25;;;24.96;54.49
59531;BME280;45349;48.692;8.186;2023-05-22T11:38:42;98357.66;;;25.36;53.21
59531;BME280;45349;48.692;8.186;2023-05-22T11:41:09;98362.44;;;25.61;54.68
59531;BME280;45349;48.692;8.186;2023-05-22T11:43:36;98357.41;;;25.38;56.51
59531;BME280;45349;48.692;8.186;2023-05-22T11:46:06;98362.19;;;25.68;52.65
59531;BME280;45349;48.692;8.186;2023-05-22T11:48:34;98361.28;;;25.52;52.78
59531;BME280;45349;48.692;8.186;2023-05-22T11:51:01;98361.19;;;25.42;53.32
59531;BME280;45349;48.692;8.186;2023-05-22T11:53:29;98374.00;;;25.72;51.84
59531;BME280;45349;48.692;8.186;2023-05-22T11:56:00;98368.13;;;25.75;52.07
59531;BME280;45349;48.692;8.186;2023-05-22T11:58:27;98366.94;;;25.61;52.98
59531;BME280;45349;48.692;8.186;2023-05-22T12:00:57;98366.34;;;25.86;50.54
59531;BME280;45349;48.692;8.186;2023-05-22T12:03:23;98369.56;;;25.88;50.77
59531;BME280;45349;48.692;8.186;2023-05-22T12:05:53;98370.66;;;25.92;49.55
59531;BME280;45349;48.692;8.186;2023-05-22T12:08:19;98356.84;;;26.11;50.73
59531;BME280;45349;48.692;8.186;2023-05-22T12:10:47;98371.38;;;26.26;47.74
59531;BME280;45349;48.692;8.186;2023-05-22T12:13:14;98376.84;;;26.51;46.04
59531;BME280;45349;48.692;8.186;2023-05-22T12:15:46;98373.13;;;26.58;48.25
59531;BME280;45349;48.692;8.186;2023-05-22T12:18:13;98368.16;;;26.87;46.59
59531;BME280;45349;48.692;8.186;2023-05-22T12:20:41;98372.47;;;27.04;47.31
59531;BME280;45349;48.692;8.186;2023-05-22T12:23:11;98369.00;;;27.24;44.62
59531;BME280;45349;48.692;8.186;2023-05-22T12:25:37;98365.97;;;26.79;46.30
59531;BME280;45349;48.692;8.186;2023-05-22T12:28:05;98367.50;;;26.59;45.55
59531;BME280;45349;48.692;8.186;2023-05-22T12:30:39;98357.66;;;26.12;44.76
59531;BME280;45349;48.692;8.186;2023-05-22T12:33:11;98365.50;;;25.81;46.76
59531;BME280;45349;48.692;8.186;2023-05-22T12:35:38;98371.91;;;25.79;46.35
59531;BME280;45349;48.692;8.186;2023-05-22T12:38:06;98357.50;;;25.48;45.32
59531;BME280;45349;48.692;8.186;2023-05-22T12:40:34;98351.47;;;25.30;46.24
59531;BME280;45349;48.692;8.186;2023-05-22T12:43:01;98348.69;;;25.20;45.67
59531;BME280;45349;48.692;8.186;2023-05-22T12:45:27;98348.88;;;25.08;53.31
59531;BME280;45349;48.692;8.186;2023-05-22T12:47:54;98348.22;;;24.96;57.86
59531;BME280;45349;48.692;8.186;2023-05-22T12:50:23;98341.47;;;24.88;59.40
59531;BME280;45349;48.692;8.186;2023-05-22T12:52:50;98344.97;;;24.66;61.06
59531;BME280;45349;48.692;8.186;2023-05-22T12:55:16;98340.69;;;24.65;62.89
59531;BME280;45349;48.692;8.186;2023-05-22T12:57:44;98339.56;;;24.61;65.01
59531;BME280;45349;48.692;8.186;2023-05-22T13:00:12;98341.91;;;24.57;61.77
59531;BME280;45349;48.692;8.186;2023-05-22T13:02:39;98337.06;;;24.54;58.23
59531;BME280;45349;48.692;8.186;2023-05-22T13:05:06;98344.63;;;24.62;54.59
59531;BME280;45349;48.692;8.186;2023-05-22T13:07:32;98343.28;;;24.82;55.89
59531;BME280;45349;48.692;8.186;2023-05-22T13:09:59;98340.66;;;24.87;54.71
59531;BME280;45349;48.692;8.186;2023-05-22T13:12:26;98333.97;;;25.12;57.86